Airfield :
LOGIN :

Register | Disclaimer

   EN    FR    IT 

 










Legend :    VFR   Marginal VFR   IFR   Intensive IFR   Very Intensive IFR
Visi :
Ceiling :
>= 8 km
>= 3000ft
5 to 8 km
1000 to 3000 ft
1500m to 5 km
500 to 1000 ft
800 to 1500m
200 to 500 ft
< 800m
< 200 ft
Symbols :   Thunderstorms  Fog  Heavy snow  Heavy precipitations  Wind > 20 kt
SIGMETs :     Misc.  Thunderstorms  Icing  Turbulence  Mountain Waves  Volcanic Ashes






- Airport Elevation : 75 ft
- IATA code : MRH


EGYM - RAF Marham

CURRENT METAR :
  • 211250Z 29004KT 6000 -RA BKN004 OVC007 14/14 Q0990 TEMPO SCT006 RMK YLO2 TEMPO YLO1

EXPIRED METARs :
  • 211220Z 19001KT 6000 -RA BKN004 OVC007 14/14 Q0990 TEMPO 4000 RA FEW004 BKN006 RMK YLO2 TEMP YLO1
  • 211150Z 11002KT 6000 -RA SCT006 OVC010 14/14 Q0990 TEMPO 3000 RADZ SCT004 BKN006 RMK YLO1 TEMPO YLO2
  • 211120Z 10004KT 5000 -RA SCT006 OVC010 14/14 Q0991 YLO1 TEMPO 3000 RADZ SCT004 BKN005 RMK YLO1 TEMPO YLO2
  • 211050Z 09004KT 4000 RA BKN005 OVC008 14/14 Q0991 TEMPO 6000 -RA SCT004 BKN006 RMK YLO1 TEMPO YLO2
  • 211022Z 09004KT 3000 RA BKN005 OVC015 14/14 Q0991 TEMPO 6000 -RA SCT004 BKN006 YLO1 TEMPO YLO2

TAF AMD TAF EGYM
Valid from the 21 at 12:00 until the 21 at 18:00 UTC


211156Z 2112/2118 11005KT 6000 -RA FEW004 SCT007
BECMG 2112/2113 22010KT
TEMPO 2112/2115 3000 RA FEW002 OVC004
PROB30
TEMPO 2112/2115 SCT002
BECMG 2114/2116 9999 NSW
PROB40
TEMPO 2115/2118 22015G25KT 4000 SHRA SCT004



MET'MAP, your aeronautical weather chart ! - Copyright ORBIFLY December 2007 - Disclaimer

ORBIFLY MET'MAP TEAM :

Programming & Development : Alexandra Zaïnal
Concept & original design : Baudouin d'Aumeries
Assistance for programming : Marc-Olivier Méhu
Technical & hardware support : Manuel Goepfert

Contact : metmap@orbifly.com




SOURCES & CREDITS :

   NOAA